Chachapoyas, Peru
Current Conditions -  °F | °C
As of 6:00 PM on Wednesday 22 Oct 2014 (Local Time) from SPJR Reporting Station
Scattered Clouds Scattered Clouds  
Wind Chill: 59°   Ceiling: Unl
Heat Index: 59°   Visibility: 6mi
Dew Point: 48°   Wind: 2mph
Humidity: 67%   Direction: NA
Pressure: 30.33"   Gusts: NA
Location:  6.23°S, 77.87°W
Report Text: SPJR 222300Z VRB02KT 9999 SCT030 15/09 Q1027 RMK PP000
Loading
Personal Weather Stations






























Interactive Weather Map New forecast layout! Learn more

10-Day Weather Forecast

Advertisements
Track Severe Weather on mobile